Aviation Digital Data Service (ADDS)

Output produced by METARs form (0725 UTC 25 May 2015)
found at http://aviationweather.gov/adds/metars/
 
KGSO 250525Z 2506/2606 19005KT P6SM SKC 
     FM251500 21011KT P6SM SCT050